Airfield :
LOGIN :

Register | Disclaimer

   EN    FR    IT 

 










Legend :    VFR   Marginal VFR   IFR   Intensive IFR   Very Intensive IFR
Visi :
Ceiling :
>= 8 km
>= 3000ft
5 to 8 km
1000 to 3000 ft
1500m to 5 km
500 to 1000 ft
800 to 1500m
200 to 500 ft
< 800m
< 200 ft
Symbols :   Thunderstorms  Fog  Heavy snow  Heavy precipitations  Wind > 20 kt
SIGMETs :     Misc.  Thunderstorms  Icing  Turbulence  Mountain Waves  Volcanic Ashes






- Airport Elevation : 202 ft
- IATA code : LGW


EGKK - London Gatwick

CURRENT METAR :
  • 182350Z 09002KT CAVOK 18/14 Q1019

EXPIRED METARs :
  • 182320Z 08003KT CAVOK 18/14 Q1019
  • 182250Z 09004KT CAVOK 19/14 Q1020
  • 182220Z 09002KT CAVOK 19/14 Q1020
  • 182150Z 16003KT CAVOK 20/14 Q1020
  • 182120Z VRB02KT CAVOK 20/15 Q1020
  • 182050Z 15002KT CAVOK 21/14 Q1020
  • 182020Z 14002KT CAVOK 22/14 Q1020
  • 181950Z 14003KT 110V170 CAVOK 23/14 Q1020
  • 181920Z 15004KT 130V210 CAVOK 24/14 Q1019
  • 181850Z 18005KT 140V220 CAVOK 25/13 Q1019

TAF TAF EGKK
Valid from the 19 at 00:00 until the 20 at 06:00 UTC


182253Z 1900/2006 07003KT CAVOK
PROB30
TEMPO 1900/1907 8000
BECMG 1910/1913 19010KT
PROB30
TEMPO 2000/2006 6000 BKN006



MET'MAP, your aeronautical weather chart ! - Copyright ORBIFLY December 2007 - Disclaimer

ORBIFLY MET'MAP TEAM :

Programming & Development : Alexandra Zaïnal
Original concept : Baudouin d'Aumeries
Technical & hardware support : Manuel Goepfert
Assistance : Marc-Olivier Méhu




SOURCES & CREDITS :

   NOAA